sensor_id;sensor_type;location;lat;lon;timestamp;pressure;altitude;pressure_sealevel;temperature;humidity
76478;BME280;65309;49.790;18.972;2022-12-07T00:02:16;96409.44;;;1.99;84.86
76478;BME280;65309;49.790;18.972;2022-12-07T00:07:18;96401.63;;;2.14;84.20
76478;BME280;65309;49.790;18.972;2022-12-07T00:12:28;96399.72;;;1.98;84.51
76478;BME280;65309;49.790;18.972;2022-12-07T00:17:31;96389.00;;;2.20;83.16
76478;BME280;65309;49.790;18.972;2022-12-07T00:22:35;96389.91;;;2.29;83.44
76478;BME280;65309;49.790;18.972;2022-12-07T00:27:37;96377.00;;;2.43;82.59
76478;BME280;65309;49.790;18.972;2022-12-07T00:32:40;96383.84;;;2.22;83.97
76478;BME280;65309;49.790;18.972;2022-12-07T00:37:42;96381.38;;;2.27;83.52
76478;BME280;65309;49.790;18.972;2022-12-07T00:42:44;96383.03;;;2.38;82.89
76478;BME280;65309;49.790;18.972;2022-12-07T00:47:47;96377.22;;;2.36;82.21
76478;BME280;65309;49.790;18.972;2022-12-07T00:52:49;96378.97;;;2.42;82.73
76478;BME280;65309;49.790;18.972;2022-12-07T00:57:51;96369.69;;;2.40;82.86
76478;BME280;65309;49.790;18.972;2022-12-07T01:02:54;96369.25;;;2.28;83.53
76478;BME280;65309;49.790;18.972;2022-12-07T01:07:56;96369.25;;;2.28;83.22
76478;BME280;65309;49.790;18.972;2022-12-07T01:12:59;96381.16;;;2.47;82.09
76478;BME280;65309;49.790;18.972;2022-12-07T01:18:02;96368.16;;;2.26;83.39
76478;BME280;65309;49.790;18.972;2022-12-07T01:23:04;96367.94;;;2.20;83.57
76478;BME280;65309;49.790;18.972;2022-12-07T01:28:06;96366.94;;;2.27;83.40
76478;BME280;65309;49.790;18.972;2022-12-07T01:33:10;96366.44;;;2.45;82.57
76478;BME280;65309;49.790;18.972;2022-12-07T01:38:11;96362.63;;;2.29;82.69
76478;BME280;65309;49.790;18.972;2022-12-07T01:43:16;96357.06;;;2.46;81.98
76478;BME280;65309;49.790;18.972;2022-12-07T01:48:24;96356.28;;;2.33;82.84
76478;BME280;65309;49.790;18.972;2022-12-07T01:53:29;96344.16;;;2.34;82.91
76478;BME280;65309;49.790;18.972;2022-12-07T01:58:31;96355.50;;;2.32;83.16
76478;BME280;65309;49.790;18.972;2022-12-07T02:03:38;96345.91;;;2.27;82.33
76478;BME280;65309;49.790;18.972;2022-12-07T02:08:41;96348.22;;;2.42;82.24
76478;BME280;65309;49.790;18.972;2022-12-07T02:13:45;96357.34;;;2.35;82.24
76478;BME280;65309;49.790;18.972;2022-12-07T02:19:00;96348.53;;;2.44;81.96
76478;BME280;65309;49.790;18.972;2022-12-07T02:24:15;96341.53;;;2.43;80.41
76478;BME280;65309;49.790;18.972;2022-12-07T02:29:24;96349.28;;;2.44;81.14
76478;BME280;65309;49.790;18.972;2022-12-07T02:34:34;96349.50;;;2.37;81.28
76478;BME280;65309;49.790;18.972;2022-12-07T02:39:43;96350.38;;;2.34;82.39
76478;BME280;65309;49.790;18.972;2022-12-07T02:44:47;96346.00;;;2.11;84.02
76478;BME280;65309;49.790;18.972;2022-12-07T02:49:50;96346.09;;;2.08;83.24
76478;BME280;65309;49.790;18.972;2022-12-07T02:54:52;96344.13;;;2.08;83.62
76478;BME280;65309;49.790;18.972;2022-12-07T03:00:03;96345.78;;;2.18;83.85
76478;BME280;65309;49.790;18.972;2022-12-07T03:05:14;96351.69;;;2.17;83.67
76478;BME280;65309;49.790;18.972;2022-12-07T03:10:28;96347.19;;;2.10;82.87
76478;BME280;65309;49.790;18.972;2022-12-07T03:15:41;96351.09;;;2.09;83.67
76478;BME280;65309;49.790;18.972;2022-12-07T03:20:45;96343.66;;;1.97;83.61
76478;BME280;65309;49.790;18.972;2022-12-07T03:25:53;96347.38;;;2.03;84.05
76478;BME280;65309;49.790;18.972;2022-12-07T03:31:07;96347.16;;;1.98;84.99
76478;BME280;65309;49.790;18.972;2022-12-07T03:36:18;96334.63;;;2.00;84.14
76478;BME280;65309;49.790;18.972;2022-12-07T03:41:24;96339.44;;;1.96;84.55
76478;BME280;65309;49.790;18.972;2022-12-07T03:46:34;96328.06;;;1.98;83.10
76478;BME280;65309;49.790;18.972;2022-12-07T03:51:41;96331.25;;;1.96;83.82
76478;BME280;65309;49.790;18.972;2022-12-07T03:56:46;96328.84;;;1.98;82.37
76478;BME280;65309;49.790;18.972;2022-12-07T04:01:53;96332.78;;;2.10;82.09
76478;BME280;65309;49.790;18.972;2022-12-07T04:06:56;96329.50;;;2.02;83.05
76478;BME280;65309;49.790;18.972;2022-12-07T04:11:58;96331.25;;;1.96;82.79
76478;BME280;65309;49.790;18.972;2022-12-07T04:17:01;96336.31;;;1.81;83.46
76478;BME280;65309;49.790;18.972;2022-12-07T04:22:04;96334.88;;;1.77;84.63
76478;BME280;65309;49.790;18.972;2022-12-07T04:27:06;96332.69;;;1.72;84.80
76478;BME280;65309;49.790;18.972;2022-12-07T04:32:10;96344.06;;;1.83;84.16
76478;BME280;65309;49.790;18.972;2022-12-07T04:37:11;96345.19;;;1.57;85.62
76478;BME280;65309;49.790;18.972;2022-12-07T04:42:13;96348.09;;;1.50;86.34
76478;BME280;65309;49.790;18.972;2022-12-07T04:47:18;96348.56;;;1.61;86.65
76478;BME280;65309;49.790;18.972;2022-12-07T04:52:22;96342.00;;;1.46;86.56
76478;BME280;65309;49.790;18.972;2022-12-07T04:57:24;96353.97;;;1.48;86.68
76478;BME280;65309;49.790;18.972;2022-12-07T05:02:27;96349.19;;;1.52;85.68
76478;BME280;65309;49.790;18.972;2022-12-07T05:07:29;96351.34;;;1.45;86.28
76478;BME280;65309;49.790;18.972;2022-12-07T05:12:31;96359.16;;;1.43;85.85
76478;BME280;65309;49.790;18.972;2022-12-07T05:17:34;96350.88;;;1.62;85.80
76478;BME280;65309;49.790;18.972;2022-12-07T05:22:36;96347.94;;;1.41;85.88
76478;BME280;65309;49.790;18.972;2022-12-07T05:27:38;96340.66;;;1.37;86.25
76478;BME280;65309;49.790;18.972;2022-12-07T05:32:42;96344.41;;;1.27;86.78
76478;BME280;65309;49.790;18.972;2022-12-07T05:37:44;96345.44;;;1.33;86.13
76478;BME280;65309;49.790;18.972;2022-12-07T05:42:46;96348.75;;;1.25;86.29
76478;BME280;65309;49.790;18.972;2022-12-07T05:47:49;96359.38;;;1.35;86.09
76478;BME280;65309;49.790;18.972;2022-12-07T05:52:51;96347.19;;;1.40;85.54
76478;BME280;65309;49.790;18.972;2022-12-07T05:57:53;96344.78;;;1.42;85.46
76478;BME280;65309;49.790;18.972;2022-12-07T06:03:15;96351.91;;;1.23;86.13
76478;BME280;65309;49.790;18.972;2022-12-07T06:08:17;96352.09;;;1.16;86.72
76478;BME280;65309;49.790;18.972;2022-12-07T06:13:19;96350.13;;;1.17;86.42
76478;BME280;65309;49.790;18.972;2022-12-07T06:18:22;96360.88;;;1.08;86.54
76478;BME280;65309;49.790;18.972;2022-12-07T06:23:24;96360.78;;;1.11;86.37
76478;BME280;65309;49.790;18.972;2022-12-07T06:28:26;96361.34;;;1.19;86.40
76478;BME280;65309;49.790;18.972;2022-12-07T06:33:30;96357.59;;;1.13;86.23
76478;BME280;65309;49.790;18.972;2022-12-07T06:38:32;96380.16;;;1.13;86.28
76478;BME280;65309;49.790;18.972;2022-12-07T06:43:34;96376.41;;;1.23;85.78
76478;BME280;65309;49.790;18.972;2022-12-07T06:48:37;96372.31;;;1.31;85.57
76478;BME280;65309;49.790;18.972;2022-12-07T06:53:39;96380.50;;;1.31;85.62
76478;BME280;65309;49.790;18.972;2022-12-07T06:58:41;96383.31;;;1.28;86.15
76478;BME280;65309;49.790;18.972;2022-12-07T07:03:45;96385.25;;;1.27;85.42
76478;BME280;65309;49.790;18.972;2022-12-07T07:08:47;96392.78;;;1.52;85.31
76478;BME280;65309;49.790;18.972;2022-12-07T07:13:49;96396.16;;;1.27;85.98
76478;BME280;65309;49.790;18.972;2022-12-07T07:18:53;96395.00;;;1.12;86.41
76478;BME280;65309;49.790;18.972;2022-12-07T07:23:55;96400.50;;;1.09;86.55
76478;BME280;65309;49.790;18.972;2022-12-07T07:28:58;96398.13;;;1.11;86.35
76478;BME280;65309;49.790;18.972;2022-12-07T07:34:01;96409.88;;;1.08;86.80
76478;BME280;65309;49.790;18.972;2022-12-07T07:39:03;96398.22;;;1.07;86.84
76478;BME280;65309;49.790;18.972;2022-12-07T07:44:05;96404.59;;;1.01;86.37
76478;BME280;65309;49.790;18.972;2022-12-07T07:49:09;96406.97;;;0.99;86.54
76478;BME280;65309;49.790;18.972;2022-12-07T07:54:12;96412.16;;;1.25;85.78
76478;BME280;65309;49.790;18.972;2022-12-07T07:59:14;96414.53;;;1.23;85.25
76478;BME280;65309;49.790;18.972;2022-12-07T08:04:17;96402.13;;;1.22;85.46
76478;BME280;65309;49.790;18.972;2022-12-07T08:09:19;96418.72;;;1.28;84.73
76478;BME280;65309;49.790;18.972;2022-12-07T08:14:21;96419.13;;;1.26;85.03
76478;BME280;65309;49.790;18.972;2022-12-07T08:19:25;96425.53;;;1.36;83.79
76478;BME280;65309;49.790;18.972;2022-12-07T08:24:27;96429.78;;;1.37;84.08
76478;BME280;65309;49.790;18.972;2022-12-07T08:29:29;96426.00;;;1.47;83.68
76478;BME280;65309;49.790;18.972;2022-12-07T08:34:32;96421.22;;;1.51;83.25
76478;BME280;65309;49.790;18.972;2022-12-07T08:39:34;96431.88;;;1.62;82.60
76478;BME280;65309;49.790;18.972;2022-12-07T08:44:36;96423.94;;;1.67;82.65
76478;BME280;65309;49.790;18.972;2022-12-07T08:49:42;96426.13;;;1.72;81.70
76478;BME280;65309;49.790;18.972;2022-12-07T08:54:46;96436.28;;;2.01;80.88
76478;BME280;65309;49.790;18.972;2022-12-07T08:59:48;96435.44;;;1.75;81.57
76478;BME280;65309;49.790;18.972;2022-12-07T09:04:52;96430.81;;;1.72;82.17
76478;BME280;65309;49.790;18.972;2022-12-07T09:09:54;96433.06;;;1.61;83.26
76478;BME280;65309;49.790;18.972;2022-12-07T09:14:56;96416.72;;;1.61;82.54
76478;BME280;65309;49.790;18.972;2022-12-07T09:19:59;96433.31;;;1.66;82.58
76478;BME280;65309;49.790;18.972;2022-12-07T09:25:04;96426.69;;;1.96;80.35
76478;BME280;65309;49.790;18.972;2022-12-07T09:30:07;96415.78;;;1.96;79.76
76478;BME280;65309;49.790;18.972;2022-12-07T09:35:10;96420.81;;;2.10;78.66
76478;BME280;65309;49.790;18.972;2022-12-07T09:40:13;96408.34;;;1.97;80.04
76478;BME280;65309;49.790;18.972;2022-12-07T09:45:19;96407.78;;;1.89;80.86
76478;BME280;65309;49.790;18.972;2022-12-07T09:50:26;96408.31;;;2.13;78.61
76478;BME280;65309;49.790;18.972;2022-12-07T09:55:30;96423.75;;;2.03;78.51
76478;BME280;65309;49.790;18.972;2022-12-07T10:00:32;96401.66;;;2.26;77.15
76478;BME280;65309;49.790;18.972;2022-12-07T10:05:38;96382.97;;;2.12;76.53
76478;BME280;65309;49.790;18.972;2022-12-07T10:10:43;96390.00;;;2.39;75.99
76478;BME280;65309;49.790;18.972;2022-12-07T10:15:48;96384.78;;;2.44;74.48
76478;BME280;65309;49.790;18.972;2022-12-07T10:21:03;96381.94;;;2.60;74.13
76478;BME280;65309;49.790;18.972;2022-12-07T10:26:27;96378.78;;;2.49;74.89
76478;BME280;65309;49.790;18.972;2022-12-07T10:31:30;96365.78;;;2.91;72.82
76478;BME280;65309;49.790;18.972;2022-12-07T10:36:36;96351.78;;;2.64;69.94
76478;BME280;65309;49.790;18.972;2022-12-07T10:41:52;96350.72;;;2.74;72.40
76478;BME280;65309;49.790;18.972;2022-12-07T10:52:34;96330.41;;;2.75;72.62
76478;BME280;65309;49.790;18.972;2022-12-07T10:57:49;96323.94;;;2.82;71.09
76478;BME280;65309;49.790;18.972;2022-12-07T11:03:23;96333.84;;;2.88;71.37
76478;BME280;65309;49.790;18.972;2022-12-07T11:08:39;96327.22;;;2.64;71.99
76478;BME280;65309;49.790;18.972;2022-12-07T11:13:48;96327.13;;;2.55;71.28
76478;BME280;65309;49.790;18.972;2022-12-07T11:19:09;96333.34;;;2.55;72.33
76478;BME280;65309;49.790;18.972;2022-12-07T11:24:19;96326.69;;;2.69;71.97
76478;BME280;65309;49.790;18.972;2022-12-07T11:29:51;96322.53;;;2.39;73.85
76478;BME280;65309;49.790;18.972;2022-12-07T11:35:03;96331.28;;;2.47;74.16
76478;BME280;65309;49.790;18.972;2022-12-07T11:40:18;96318.84;;;2.71;73.71
76478;BME280;65309;49.790;18.972;2022-12-07T11:45:24;96321.88;;;2.48;74.83
76478;BME280;65309;49.790;18.972;2022-12-07T11:50:33;96308.34;;;2.57;75.12
76478;BME280;65309;49.790;18.972;2022-12-07T11:55:41;96306.78;;;2.81;75.45
76478;BME280;65309;49.790;18.972;2022-12-07T12:00:43;96299.34;;;2.94;72.51
76478;BME280;65309;49.790;18.972;2022-12-07T12:05:46;96285.69;;;2.94;71.26
76478;BME280;65309;49.790;18.972;2022-12-07T12:10:55;96292.09;;;3.13;70.54
76478;BME280;65309;49.790;18.972;2022-12-07T12:16:11;96290.34;;;2.47;71.98
76478;BME280;65309;49.790;18.972;2022-12-07T12:21:17;96300.50;;;2.46;70.85
76478;BME280;65309;49.790;18.972;2022-12-07T12:26:24;96299.75;;;2.20;71.62
76478;BME280;65309;49.790;18.972;2022-12-07T12:31:36;96303.53;;;1.98;72.44
76478;BME280;65309;49.790;18.972;2022-12-07T12:36:47;96301.91;;;2.13;71.88
76478;BME280;65309;49.790;18.972;2022-12-07T12:42:00;96294.94;;;2.12;70.72
76478;BME280;65309;49.790;18.972;2022-12-07T12:47:03;96299.50;;;2.02;70.95
76478;BME280;65309;49.790;18.972;2022-12-07T13:03:32;96301.03;;;2.16;71.98
76478;BME280;65309;49.790;18.972;2022-12-07T13:08:40;96304.41;;;2.07;71.83
76478;BME280;65309;49.790;18.972;2022-12-07T13:13:43;96303.66;;;2.19;73.26
76478;BME280;65309;49.790;18.972;2022-12-07T13:18:46;96292.63;;;2.36;73.13
76478;BME280;65309;49.790;18.972;2022-12-07T13:23:54;96292.75;;;2.45;71.29
76478;BME280;65309;49.790;18.972;2022-12-07T13:29:07;96281.28;;;2.50;70.95
76478;BME280;65309;49.790;18.972;2022-12-07T13:34:31;96290.25;;;2.38;70.99
76478;BME280;65309;49.790;18.972;2022-12-07T13:39:35;96305.97;;;2.34;71.98
76478;BME280;65309;49.790;18.972;2022-12-07T13:44:45;96303.22;;;2.08;72.74
76478;BME280;65309;49.790;18.972;2022-12-07T13:49:51;96315.00;;;2.18;72.64
76478;BME280;65309;49.790;18.972;2022-12-07T13:54:57;96323.41;;;2.23;71.98
76478;BME280;65309;49.790;18.972;2022-12-07T14:00:00;96325.25;;;2.26;72.17
76478;BME280;65309;49.790;18.972;2022-12-07T14:05:09;96316.00;;;2.37;70.66
76478;BME280;65309;49.790;18.972;2022-12-07T14:10:23;96315.78;;;2.31;71.39
76478;BME280;65309;49.790;18.972;2022-12-07T14:15:28;96318.38;;;2.35;70.20
76478;BME280;65309;49.790;18.972;2022-12-07T14:20:36;96316.97;;;2.43;70.44
76478;BME280;65309;49.790;18.972;2022-12-07T14:25:45;96320.34;;;2.21;71.11
76478;BME280;65309;49.790;18.972;2022-12-07T14:30:52;96307.94;;;2.46;70.32
76478;BME280;65309;49.790;18.972;2022-12-07T14:35:57;96321.47;;;2.49;70.64
76478;BME280;65309;49.790;18.972;2022-12-07T14:41:00;96314.56;;;2.32;70.37
76478;BME280;65309;49.790;18.972;2022-12-07T14:46:20;96323.84;;;2.22;71.60
76478;BME280;65309;49.790;18.972;2022-12-07T14:51:24;96328.31;;;2.16;70.65
76478;BME280;65309;49.790;18.972;2022-12-07T14:56:46;96331.34;;;2.05;71.70
76478;BME280;65309;49.790;18.972;2022-12-07T15:01:52;96326.91;;;2.11;71.67
76478;BME280;65309;49.790;18.972;2022-12-07T15:06:57;96344.78;;;2.12;69.54
76478;BME280;65309;49.790;18.972;2022-12-07T15:11:59;96322.97;;;2.12;70.68
76478;BME280;65309;49.790;18.972;2022-12-07T15:17:01;96332.75;;;1.97;71.02
76478;BME280;65309;49.790;18.972;2022-12-07T15:22:24;96335.25;;;1.92;70.83
76478;BME280;65309;49.790;18.972;2022-12-07T15:27:26;96333.00;;;2.03;70.57
76478;BME280;65309;49.790;18.972;2022-12-07T15:32:28;96343.25;;;2.11;71.01
76478;BME280;65309;49.790;18.972;2022-12-07T15:37:32;96342.59;;;2.07;69.77
76478;BME280;65309;49.790;18.972;2022-12-07T15:42:35;96359.50;;;2.02;70.75
76478;BME280;65309;49.790;18.972;2022-12-07T15:47:38;96363.41;;;2.01;70.46
76478;BME280;65309;49.790;18.972;2022-12-07T15:53:02;96363.41;;;2.01;70.50
76478;BME280;65309;49.790;18.972;2022-12-07T15:58:04;96376.41;;;2.10;70.20
76478;BME280;65309;49.790;18.972;2022-12-07T16:03:06;96362.66;;;2.13;71.16
76478;BME280;65309;49.790;18.972;2022-12-07T16:08:09;96377.16;;;1.98;69.95
76478;BME280;65309;49.790;18.972;2022-12-07T16:13:11;96384.03;;;2.02;70.99
76478;BME280;65309;49.790;18.972;2022-12-07T16:18:15;96384.50;;;2.13;71.33
76478;BME280;65309;49.790;18.972;2022-12-07T16:23:18;96388.50;;;1.96;71.87
76478;BME280;65309;49.790;18.972;2022-12-07T16:28:20;96382.72;;;1.94;72.58
76478;BME280;65309;49.790;18.972;2022-12-07T16:33:22;96386.34;;;2.04;71.67
76478;BME280;65309;49.790;18.972;2022-12-07T16:38:26;96392.56;;;2.04;71.31
76478;BME280;65309;49.790;18.972;2022-12-07T16:43:28;96377.91;;;1.98;70.18
76478;BME280;65309;49.790;18.972;2022-12-07T16:48:30;96383.38;;;1.98;69.90
76478;BME280;65309;49.790;18.972;2022-12-07T16:53:34;96378.03;;;1.95;70.09
76478;BME280;65309;49.790;18.972;2022-12-07T16:58:37;96382.78;;;1.78;69.82
76478;BME280;65309;49.790;18.972;2022-12-07T17:03:39;96379.16;;;1.52;71.50
76478;BME280;65309;49.790;18.972;2022-12-07T17:08:43;96385.59;;;1.46;72.02
76478;BME280;65309;49.790;18.972;2022-12-07T17:13:45;96377.25;;;1.36;72.19
76478;BME280;65309;49.790;18.972;2022-12-07T17:19:07;96374.38;;;1.56;72.64
76478;BME280;65309;49.790;18.972;2022-12-07T17:24:13;96381.75;;;1.43;72.55
76478;BME280;65309;49.790;18.972;2022-12-07T17:29:17;96387.34;;;1.52;72.60
76478;BME280;65309;49.790;18.972;2022-12-07T17:34:19;96393.81;;;1.58;71.94
76478;BME280;65309;49.790;18.972;2022-12-07T17:39:23;96389.25;;;1.68;72.35
76478;BME280;65309;49.790;18.972;2022-12-07T17:44:27;96397.72;;;1.57;72.82
76478;BME280;65309;49.790;18.972;2022-12-07T17:49:29;96400.56;;;1.54;73.04
76478;BME280;65309;49.790;18.972;2022-12-07T17:54:32;96387.03;;;1.50;72.97
76478;BME280;65309;49.790;18.972;2022-12-07T17:59:34;96385.59;;;1.46;72.50
76478;BME280;65309;49.790;18.972;2022-12-07T18:04:36;96386.28;;;1.33;73.55
76478;BME280;65309;49.790;18.972;2022-12-07T18:09:40;96383.28;;;1.44;72.75
76478;BME280;65309;49.790;18.972;2022-12-07T18:14:43;96390.94;;;1.49;72.61
76478;BME280;65309;49.790;18.972;2022-12-07T18:19:45;96390.91;;;1.65;71.59
76478;BME280;65309;49.790;18.972;2022-12-07T18:24:48;96393.72;;;1.62;71.53
76478;BME280;65309;49.790;18.972;2022-12-07T18:29:50;96398.09;;;2.01;69.68
76478;BME280;65309;49.790;18.972;2022-12-07T18:34:53;96388.81;;;1.98;68.58
76478;BME280;65309;49.790;18.972;2022-12-07T18:39:57;96370.63;;;2.08;68.09
76478;BME280;65309;49.790;18.972;2022-12-07T18:44:59;96374.34;;;2.14;68.83
76478;BME280;65309;49.790;18.972;2022-12-07T18:50:01;96375.25;;;1.82;67.31
76478;BME280;65309;49.790;18.972;2022-12-07T18:55:06;96370.94;;;1.97;66.04
76478;BME280;65309;49.790;18.972;2022-12-07T19:00:09;96373.44;;;1.92;66.48
76478;BME280;65309;49.790;18.972;2022-12-07T19:05:11;96372.56;;;1.95;66.30
76478;BME280;65309;49.790;18.972;2022-12-07T19:10:14;96379.63;;;1.92;67.33
76478;BME280;65309;49.790;18.972;2022-12-07T19:15:16;96367.94;;;1.79;67.21
76478;BME280;65309;49.790;18.972;2022-12-07T19:20:18;96367.34;;;2.00;64.93
76478;BME280;65309;49.790;18.972;2022-12-07T19:25:21;96374.66;;;2.03;65.94
76478;BME280;65309;49.790;18.972;2022-12-07T19:30:23;96373.16;;;1.73;66.15
76478;BME280;65309;49.790;18.972;2022-12-07T19:35:25;96370.06;;;1.43;67.60
76478;BME280;65309;49.790;18.972;2022-12-07T19:40:29;96373.56;;;1.43;68.11
76478;BME280;65309;49.790;18.972;2022-12-07T19:45:30;96369.75;;;1.41;66.79
76478;BME280;65309;49.790;18.972;2022-12-07T19:50:35;96374.25;;;1.47;67.38
76478;BME280;65309;49.790;18.972;2022-12-07T19:55:40;96378.25;;;1.43;67.93
76478;BME280;65309;49.790;18.972;2022-12-07T20:00:42;96375.47;;;1.75;65.63
76478;BME280;65309;49.790;18.972;2022-12-07T20:05:44;96381.50;;;1.95;66.08
76478;BME280;65309;49.790;18.972;2022-12-07T20:10:48;96394.19;;;2.02;64.50
76478;BME280;65309;49.790;18.972;2022-12-07T20:15:51;96387.56;;;2.15;64.22
76478;BME280;65309;49.790;18.972;2022-12-07T20:21:12;96381.34;;;2.15;64.95
76478;BME280;65309;49.790;18.972;2022-12-07T20:26:16;96378.75;;;2.24;64.30
76478;BME280;65309;49.790;18.972;2022-12-07T20:31:18;96390.25;;;2.03;64.95
76478;BME280;65309;49.790;18.972;2022-12-07T20:36:20;96399.66;;;2.14;64.80
76478;BME280;65309;49.790;18.972;2022-12-07T20:41:23;96381.91;;;2.22;64.38
76478;BME280;65309;49.790;18.972;2022-12-07T20:46:44;96375.72;;;1.93;66.92
76478;BME280;65309;49.790;18.972;2022-12-07T20:51:47;96377.97;;;2.23;64.83
76478;BME280;65309;49.790;18.972;2022-12-07T20:56:50;96376.31;;;2.13;65.61
76478;BME280;65309;49.790;18.972;2022-12-07T21:01:52;96381.69;;;2.17;66.06
76478;BME280;65309;49.790;18.972;2022-12-07T21:06:54;96392.06;;;1.93;66.30
76478;BME280;65309;49.790;18.972;2022-12-07T21:11:59;96384.41;;;1.88;65.99
76478;BME280;65309;49.790;18.972;2022-12-07T21:17:01;96387.69;;;2.24;65.06
76478;BME280;65309;49.790;18.972;2022-12-07T21:22:03;96379.06;;;2.26;65.45
76478;BME280;65309;49.790;18.972;2022-12-07T21:27:07;96400.13;;;2.13;65.97
76478;BME280;65309;49.790;18.972;2022-12-07T21:32:10;96407.19;;;2.10;66.27
76478;BME280;65309;49.790;18.972;2022-12-07T21:37:12;96408.19;;;2.16;66.41
76478;BME280;65309;49.790;18.972;2022-12-07T21:42:15;96411.91;;;2.22;66.54
76478;BME280;65309;49.790;18.972;2022-12-07T21:47:17;96407.34;;;2.32;65.71
76478;BME280;65309;49.790;18.972;2022-12-07T21:52:19;96410.13;;;2.03;67.63
76478;BME280;65309;49.790;18.972;2022-12-07T21:57:22;96402.00;;;2.28;66.66
76478;BME280;65309;49.790;18.972;2022-12-07T22:02:24;96405.91;;;2.27;68.25
76478;BME280;65309;49.790;18.972;2022-12-07T22:07:27;96411.09;;;2.09;68.62
76478;BME280;65309;49.790;18.972;2022-12-07T22:12:30;96413.31;;;2.14;68.42
76478;BME280;65309;49.790;18.972;2022-12-07T22:17:32;96411.47;;;2.24;67.85
76478;BME280;65309;49.790;18.972;2022-12-07T22:22:34;96411.88;;;2.10;67.77
76478;BME280;65309;49.790;18.972;2022-12-07T22:27:38;96414.50;;;2.13;68.83
76478;BME280;65309;49.790;18.972;2022-12-07T22:32:40;96408.72;;;2.11;67.72
76478;BME280;65309;49.790;18.972;2022-12-07T22:37:50;96413.78;;;1.97;69.11
76478;BME280;65309;49.790;18.972;2022-12-07T22:42:53;96408.94;;;2.04;68.66
76478;BME280;65309;49.790;18.972;2022-12-07T22:47:55;96420.88;;;1.94;67.99
76478;BME280;65309;49.790;18.972;2022-12-07T22:52:57;96413.22;;;1.89;67.96
76478;BME280;65309;49.790;18.972;2022-12-07T22:58:02;96402.97;;;1.93;68.20
76478;BME280;65309;49.790;18.972;2022-12-07T23:03:04;96402.53;;;1.82;68.78
76478;BME280;65309;49.790;18.972;2022-12-07T23:08:06;96397.56;;;2.06;69.43
76478;BME280;65309;49.790;18.972;2022-12-07T23:13:10;96413.19;;;2.18;67.71
76478;BME280;65309;49.790;18.972;2022-12-07T23:18:31;96410.25;;;2.12;69.61
76478;BME280;65309;49.790;18.972;2022-12-07T23:23:34;96402.16;;;2.09;69.72
76478;BME280;65309;49.790;18.972;2022-12-07T23:28:37;96403.19;;;1.86;69.83
76478;BME280;65309;49.790;18.972;2022-12-07T23:33:40;96405.66;;;1.80;70.46
76478;BME280;65309;49.790;18.972;2022-12-07T23:38:43;96396.00;;;1.63;70.94
76478;BME280;65309;49.790;18.972;2022-12-07T23:43:47;96396.69;;;1.96;70.37
76478;BME280;65309;49.790;18.972;2022-12-07T23:48:51;96397.53;;;1.93;68.69
76478;BME280;65309;49.790;18.972;2022-12-07T23:53:54;96397.13;;;1.66;70.04
76478;BME280;65309;49.790;18.972;2022-12-07T23:58:58;96393.47;;;1.85;69.99
